Terminal Aerodrome Forecast
Issued by NWS

Home | Current Version | Previous Version | Text Only | Print | Product List | Glossary On
Versions: 1 2 3 4 5 6 7 8 9 10 11 12 13 14 15 16 17 18 19 20 21 22 23 24 25 26 27 28 29 30 31 32 33 34 35 36
000
FTUS45 KBOI 170520
TAFMYL
TAF
KMYL 170520Z 1706/1806 00000KT P6SM BKN250
     FM171100 00000KT 2SM BR SCT002 BKN250
      TEMPO 1713/1715 3/4SM BR BKN002
     FM171900 VRB04KT P6SM FEW002 SCT250
      TEMPO 1719/1720 4SM BR=

USA.gov is the U.S. government's official web portal to all federal, state and local government web resources and services.